createdAt,value
2018-01-05T00:00:01.399Z,927.53
2018-01-05T00:00:13.998Z,927.52
2018-01-05T00:00:27.090Z,927.5
2018-01-05T00:00:39.782Z,927.52
2018-01-05T00:00:52.856Z,927.56
2018-01-05T00:01:05.944Z,927.54
2018-01-05T00:01:18.989Z,927.52
2018-01-05T00:01:32.034Z,927.55
2018-01-05T00:01:45.140Z,927.54
2018-01-05T00:01:58.196Z,927.56
2018-01-05T00:02:10.348Z,927.58
2018-01-05T00:02:23.416Z,927.54
2018-01-05T00:02:36.442Z,927.57
2018-01-05T00:02:49.061Z,927.56
2018-01-05T00:03:01.620Z,927.58
2018-01-05T00:03:14.149Z,927.59
2018-01-05T00:03:26.754Z,927.59
2018-01-05T00:03:39.346Z,927.63
2018-01-05T00:03:51.921Z,927.62
2018-01-05T00:04:05.008Z,927.58
2018-01-05T00:04:17.404Z,927.61
2018-01-05T00:04:30.540Z,927.63
2018-01-05T00:04:43.555Z,927.58
2018-01-05T00:04:56.140Z,927.61
2018-01-05T00:05:08.281Z,927.57
2018-01-05T00:05:21.388Z,927.6
2018-01-05T00:05:34.402Z,927.59
2018-01-05T00:05:47.493Z,927.59
2018-01-05T00:06:00.102Z,927.58
2018-01-05T00:06:12.185Z,927.6
2018-01-05T00:06:24.830Z,927.56
2018-01-05T00:06:37.880Z,927.62
2018-01-05T00:06:50.462Z,927.63
2018-01-05T00:07:03.446Z,927.59
2018-01-05T00:07:16.493Z,927.57
2018-01-05T00:07:29.632Z,927.59
2018-01-05T00:07:42.135Z,927.61
2018-01-05T00:07:56.195Z,927.6
2018-01-05T00:08:08.828Z,927.6
2018-01-05T00:08:21.841Z,927.59
2018-01-05T00:08:34.924Z,927.56
2018-01-05T00:08:48.028Z,927.66
2018-01-05T00:09:00.092Z,927.65
2018-01-05T00:09:12.883Z,927.63
2018-01-05T00:09:25.437Z,927.61
2018-01-05T00:09:38.070Z,927.64
2018-01-05T00:09:51.067Z,927.62
2018-01-05T00:10:03.677Z,927.61
2018-01-05T00:10:15.828Z,927.6
2018-01-05T00:10:28.388Z,927.62
2018-01-05T00:10:41.442Z,927.61
2018-01-05T00:10:54.087Z,927.66
2018-01-05T00:11:06.661Z,927.71
2018-01-05T00:11:19.234Z,927.65
2018-01-05T00:11:31.775Z,927.67
2018-01-05T00:11:45.051Z,927.62
2018-01-05T00:11:58.123Z,927.67
2018-01-05T00:12:10.828Z,927.64
2018-01-05T00:12:23.925Z,927.65
2018-01-05T00:12:36.982Z,927.68
2018-01-05T00:12:49.632Z,927.64
2018-01-05T00:13:02.730Z,927.63
2018-01-05T00:13:15.767Z,927.64
2018-01-05T00:13:28.816Z,927.6
2018-01-05T00:13:41.869Z,927.64
2018-01-05T00:13:54.450Z,927.61
2018-01-05T00:14:06.999Z,927.65
2018-01-05T00:14:20.087Z,927.6
2018-01-05T00:14:32.712Z,927.61
2018-01-05T00:14:45.297Z,927.62
2018-01-05T00:14:58.374Z,927.67
2018-01-05T00:15:11.447Z,927.65
2018-01-05T00:15:24.549Z,927.65
2018-01-05T00:15:37.631Z,927.66
2018-01-05T00:15:50.732Z,927.68
2018-01-05T00:16:03.808Z,927.63
2018-01-05T00:16:16.853Z,927.66
2018-01-05T00:16:30.215Z,927.65
2018-01-05T00:16:42.752Z,927.72
2018-01-05T00:16:55.882Z,927.7
2018-01-05T00:17:08.487Z,927.72
2018-01-05T00:17:21.668Z,927.63
2018-01-05T00:17:34.326Z,927.65
2018-01-05T00:17:47.356Z,927.7
2018-01-05T00:17:59.947Z,927.69
2018-01-05T00:18:12.977Z,927.68
2018-01-05T00:18:26.059Z,927.69
2018-01-05T00:18:38.746Z,927.69
2018-01-05T00:18:51.810Z,927.69
2018-01-05T00:19:04.774Z,927.65
2018-01-05T00:19:17.355Z,927.68
2018-01-05T00:19:30.456Z,927.73
2018-01-05T00:19:43.249Z,927.69
2018-01-05T00:19:56.324Z,927.74
2018-01-05T00:20:09.490Z,927.7
2018-01-05T00:20:22.037Z,927.7
2018-01-05T00:20:35.111Z,927.69
2018-01-05T00:20:47.797Z,927.71
2018-01-05T00:21:00.443Z,927.71
2018-01-05T00:21:13.508Z,927.7
2018-01-05T00:21:26.054Z,927.71
2018-01-05T00:21:39.201Z,927.67
2018-01-05T00:21:52.226Z,927.69
2018-01-05T00:22:04.777Z,927.7
2018-01-05T00:22:17.863Z,927.67
2018-01-05T00:22:30.939Z,927.73
2018-01-05T00:22:43.900Z,927.75
2018-01-05T00:22:56.878Z,927.76
2018-01-05T00:23:09.508Z,927.74
2018-01-05T00:23:22.118Z,927.73
2018-01-05T00:23:35.164Z,927.72
2018-01-05T00:23:48.197Z,927.72
2018-01-05T00:24:00.831Z,927.77
2018-01-05T00:24:13.801Z,927.74
2018-01-05T00:24:25.983Z,927.72
2018-01-05T00:24:38.514Z,927.74
2018-01-05T00:24:51.534Z,927.73
2018-01-05T00:25:04.578Z,927.76
2018-01-05T00:25:17.265Z,927.78
2018-01-05T00:25:30.307Z,927.74
2018-01-05T00:25:42.973Z,927.74
2018-01-05T00:25:56.070Z,927.73
2018-01-05T00:26:09.126Z,927.78
2018-01-05T00:26:22.277Z,927.77
2018-01-05T00:26:35.545Z,927.79
2018-01-05T00:26:48.611Z,927.81
2018-01-05T00:27:01.180Z,927.8
2018-01-05T00:27:13.988Z,927.81
2018-01-05T00:27:27.145Z,927.77
2018-01-05T00:27:39.764Z,927.82
2018-01-05T00:27:51.920Z,927.81
2018-01-05T00:28:04.530Z,927.81
2018-01-05T00:28:17.563Z,927.83
2018-01-05T00:28:30.658Z,927.83
2018-01-05T00:28:43.684Z,927.79
2018-01-05T00:28:56.261Z,927.82
2018-01-05T00:29:09.313Z,927.82
2018-01-05T00:29:22.340Z,927.81
2018-01-05T00:29:35.372Z,927.92
2018-01-05T00:29:47.907Z,927.81
2018-01-05T00:30:00.516Z,927.81
2018-01-05T00:30:12.667Z,927.87
2018-01-05T00:30:25.196Z,927.85
2018-01-05T00:30:38.229Z,927.89
2018-01-05T00:30:51.322Z,927.89
2018-01-05T00:31:04.435Z,927.87
2018-01-05T00:31:17.632Z,927.85
2018-01-05T00:31:30.776Z,927.85
2018-01-05T00:31:43.961Z,927.84
2018-01-05T00:31:57.068Z,927.87
2018-01-05T00:32:09.199Z,927.87
2018-01-05T00:32:21.805Z,927.9
2018-01-05T00:32:34.399Z,927.89
2018-01-05T00:32:47.518Z,927.88
2018-01-05T00:33:00.025Z,927.9
2018-01-05T00:33:13.083Z,927.9
2018-01-05T00:33:26.161Z,927.91
2018-01-05T00:33:39.239Z,927.92
2018-01-05T00:33:52.470Z,927.83
2018-01-05T00:34:05.555Z,927.94
2018-01-05T00:34:18.378Z,927.92
2018-01-05T00:34:31.435Z,927.93
2018-01-05T00:34:44.521Z,927.96
2018-01-05T00:34:56.600Z,927.95
2018-01-05T00:35:09.659Z,927.94
2018-01-05T00:35:22.288Z,927.92
2018-01-05T00:35:35.346Z,927.95
2018-01-05T00:35:48.435Z,928
2018-01-05T00:36:01.521Z,927.98
2018-01-05T00:36:14.116Z,927.97
2018-01-05T00:36:27.266Z,927.96
2018-01-05T00:36:40.459Z,927.95
2018-01-05T00:36:53.034Z,927.99
2018-01-05T00:37:05.629Z,928.04
2018-01-05T00:37:18.738Z,928
2018-01-05T00:37:31.865Z,928.07
2018-01-05T00:37:45.200Z,927.99
2018-01-05T00:37:58.387Z,928
2018-01-05T00:38:11.452Z,928.01
2018-01-05T00:38:24.444Z,927.97
2018-01-05T00:38:37.482Z,928.01
2018-01-05T00:38:49.620Z,927.98
2018-01-05T00:39:02.238Z,928.05
2018-01-05T00:39:15.266Z,928.06
2018-01-05T00:39:29.100Z,928.03
2018-01-05T00:39:41.751Z,927.98
2018-01-05T00:39:54.868Z,928.02
2018-01-05T00:40:08.101Z,928.02
2018-01-05T00:40:21.164Z,928.03
2018-01-05T00:40:34.247Z,928.02
2018-01-05T00:40:47.353Z,928.04
2018-01-05T00:40:59.467Z,928.03
2018-01-05T00:41:12.200Z,928.02
2018-01-05T00:41:25.276Z,928.03
2018-01-05T00:41:38.333Z,928.07
2018-01-05T00:41:51.041Z,928.02
2018-01-05T00:42:03.679Z,928.05
2018-01-05T00:42:16.334Z,928.06
2018-01-05T00:42:29.346Z,928.06
2018-01-05T00:42:42.457Z,928.07
2018-01-05T00:42:55.006Z,928.06
2018-01-05T00:43:08.017Z,928.06
2018-01-05T00:43:21.055Z,928.06
2018-01-05T00:43:34.181Z,928.11
2018-01-05T00:43:47.322Z,928.04
2018-01-05T00:43:59.893Z,928.07
2018-01-05T00:44:13.035Z,928.05
2018-01-05T00:44:25.711Z,928.08
2018-01-05T00:44:37.328Z,928.09
2018-01-05T00:44:50.396Z,928.04
2018-01-05T00:45:03.067Z,928.09
2018-01-05T00:45:15.708Z,928.07
2018-01-05T00:45:28.399Z,928.09
2018-01-05T00:45:40.968Z,928.11
2018-01-05T00:45:53.556Z,928.11
2018-01-05T00:46:05.240Z,928.06
2018-01-05T00:46:17.332Z,928.11
2018-01-05T00:46:30.339Z,928.1
2018-01-05T00:46:43.360Z,928.13
2018-01-05T00:46:56.369Z,928.13
2018-01-05T00:47:09.440Z,928.11
2018-01-05T00:47:21.998Z,928.11
2018-01-05T00:47:35.350Z,928.12
2018-01-05T00:47:47.889Z,928.15
2018-01-05T00:48:00.936Z,928.16
2018-01-05T00:48:13.038Z,928.12
2018-01-05T00:48:26.115Z,928.15
2018-01-05T00:48:39.147Z,928.14
2018-01-05T00:48:52.315Z,928.13
2018-01-05T00:49:04.907Z,928.17
2018-01-05T00:49:18.015Z,928.13
2018-01-05T00:49:30.620Z,928.15
2018-01-05T00:49:43.282Z,928.13
2018-01-05T00:49:56.382Z,928.17
2018-01-05T00:50:09.451Z,928.17
2018-01-05T00:50:24.087Z,928.15
2018-01-05T00:50:37.109Z,928.18
2018-01-05T00:50:49.716Z,928.13
2018-01-05T00:51:02.287Z,928.17
2018-01-05T00:51:15.496Z,928.15
2018-01-05T00:51:28.514Z,928.15
2018-01-05T00:51:41.557Z,928.16
2018-01-05T00:51:54.630Z,928.17
2018-01-05T00:52:07.735Z,928.17
2018-01-05T00:52:20.779Z,928.14
2018-01-05T00:52:33.361Z,928.14
2018-01-05T00:52:46.516Z,928.16
2018-01-05T00:52:59.154Z,928.12
2018-01-05T00:53:12.202Z,928.17
2018-01-05T00:53:25.258Z,928.19
2018-01-05T00:53:37.886Z,928.22
2018-01-05T00:53:50.990Z,928.19
2018-01-05T00:54:04.088Z,928.17
2018-01-05T00:54:17.219Z,928.17
2018-01-05T00:54:30.866Z,928.2
2018-01-05T00:54:42.953Z,928.19
2018-01-05T00:54:56.053Z,928.22
2018-01-05T00:55:08.642Z,928.16
2018-01-05T00:55:21.240Z,928.18
2018-01-05T00:55:34.395Z,928.23
2018-01-05T00:55:47.526Z,928.23
2018-01-05T00:56:00.097Z,928.22
2018-01-05T00:56:12.712Z,928.23
2018-01-05T00:56:25.887Z,928.23
2018-01-05T00:56:38.520Z,928.22
2018-01-05T00:56:51.625Z,928.23
2018-01-05T00:57:03.712Z,928.23
2018-01-05T00:57:16.371Z,928.21
2018-01-05T00:57:29.486Z,928.21
2018-01-05T00:57:42.640Z,928.19
2018-01-05T00:57:55.732Z,928.21
2018-01-05T00:58:08.318Z,928.22
2018-01-05T00:58:21.403Z,928.21
2018-01-05T00:58:33.964Z,928.2
2018-01-05T00:58:47.077Z,928.2
2018-01-05T00:59:00.238Z,928.21
2018-01-05T00:59:12.857Z,928.21
2018-01-05T00:59:25.971Z,928.2
2018-01-05T00:59:38.567Z,928.23
2018-01-05T00:59:51.603Z,928.22
2018-01-05T01:00:03.761Z,928.23
2018-01-05T01:00:15.882Z,928.27
2018-01-05T01:00:28.969Z,928.25
2018-01-05T01:00:41.104Z,928.21
2018-01-05T01:00:54.182Z,928.25
2018-01-05T01:01:06.791Z,928.25
2018-01-05T01:01:19.298Z,928.26
2018-01-05T01:01:32.415Z,928.31
2018-01-05T01:01:44.548Z,928.33
2018-01-05T01:01:57.136Z,928.33
2018-01-05T01:02:10.267Z,928.32
2018-01-05T01:02:23.282Z,928.32
2018-01-05T01:02:35.839Z,928.31
2018-01-05T01:02:48.975Z,928.36
2018-01-05T01:03:01.092Z,928.32
2018-01-05T01:03:14.212Z,928.34
2018-01-05T01:03:27.299Z,928.31
2018-01-05T01:03:40.344Z,928.37
2018-01-05T01:03:53.402Z,928.34
2018-01-05T01:04:05.928Z,928.34
2018-01-05T01:04:18.548Z,928.4
2018-01-05T01:04:31.853Z,928.38
2018-01-05T01:04:44.438Z,928.32
2018-01-05T01:04:57.514Z,928.38
2018-01-05T01:05:10.094Z,928.44
2018-01-05T01:05:23.227Z,928.37
2018-01-05T01:05:36.413Z,928.41
2018-01-05T01:05:49.264Z,928.38
2018-01-05T01:06:02.444Z,928.43
2018-01-05T01:06:15.063Z,928.4
2018-01-05T01:06:27.657Z,928.39
2018-01-05T01:06:39.902Z,928.37
2018-01-05T01:06:52.904Z,928.35
2018-01-05T01:07:05.996Z,928.38
2018-01-05T01:07:19.211Z,928.4
2018-01-05T01:07:32.336Z,928.4
2018-01-05T01:07:45.443Z,928.39
2018-01-05T01:07:58.656Z,928.47
2018-01-05T01:08:11.359Z,928.41
2018-01-05T01:08:23.561Z,928.36
2018-01-05T01:08:36.705Z,928.42
2018-01-05T01:08:49.820Z,928.37
2018-01-05T01:09:02.908Z,928.41
2018-01-05T01:09:15.527Z,928.38
2018-01-05T01:09:29.445Z,928.42
2018-01-05T01:09:42.544Z,928.4
2018-01-05T01:09:55.729Z,928.36
2018-01-05T01:10:08.699Z,928.39
2018-01-05T01:10:21.858Z,928.41
2018-01-05T01:10:35.155Z,928.38
2018-01-05T01:10:47.817Z,928.37
2018-01-05T01:11:00.522Z,928.38
2018-01-05T01:11:11.827Z,928.36
2018-01-05T01:11:24.155Z,928.35
2018-01-05T01:11:36.823Z,928.36
2018-01-05T01:11:49.483Z,928.38
2018-01-05T01:12:01.608Z,928.37
2018-01-05T01:12:14.439Z,928.38
2018-01-05T01:12:27.251Z,928.39
2018-01-05T01:12:40.542Z,928.38
2018-01-05T01:12:53.283Z,928.4
2018-01-05T01:13:06.560Z,928.43
2018-01-05T01:13:19.351Z,928.38
2018-01-05T01:13:32.028Z,928.37
2018-01-05T01:13:45.218Z,928.36
2018-01-05T01:13:57.924Z,928.39
2018-01-05T01:14:10.173Z,928.37
2018-01-05T01:14:21.960Z,928.38
2018-01-05T01:14:34.820Z,928.4
2018-01-05T01:14:48.036Z,928.33
2018-01-05T01:15:00.654Z,928.36
2018-01-05T01:15:13.243Z,928.35
2018-01-05T01:15:25.841Z,928.37
2018-01-05T01:15:38.587Z,928.39
2018-01-05T01:15:51.716Z,928.36
2018-01-05T01:16:04.473Z,928.4
2018-01-05T01:16:17.725Z,928.39
2018-01-05T01:16:31.082Z,928.38
2018-01-05T01:16:43.228Z,928.37
2018-01-05T01:16:55.875Z,928.37
2018-01-05T01:17:09.081Z,928.37
2018-01-05T01:17:21.887Z,928.38
2018-01-05T01:17:34.687Z,928.37
2018-01-05T01:17:47.480Z,928.38
2018-01-05T01:18:00.160Z,928.37
2018-01-05T01:18:13.451Z,928.38
2018-01-05T01:18:26.262Z,928.38
2018-01-05T01:18:39.497Z,928.38
2018-01-05T01:18:52.522Z,928.39
2018-01-05T01:19:05.666Z,928.37
2018-01-05T01:19:20.299Z,928.37
2018-01-05T01:19:32.940Z,928.37
2018-01-05T01:19:45.574Z,928.37
2018-01-05T01:19:58.645Z,928.37
2018-01-05T01:20:11.203Z,928.36
2018-01-05T01:20:24.292Z,928.38
2018-01-05T01:20:36.900Z,928.39
2018-01-05T01:20:49.947Z,928.39
2018-01-05T01:21:02.526Z,928.33
2018-01-05T01:21:15.165Z,928.36
2018-01-05T01:21:28.288Z,928.3
2018-01-05T01:21:40.876Z,928.33
2018-01-05T01:21:53.983Z,928.32
2018-01-05T01:22:07.223Z,928.34
2018-01-05T01:22:19.855Z,928.31
2018-01-05T01:22:32.902Z,928.3
2018-01-05T01:22:45.931Z,928.34
2018-01-05T01:22:58.706Z,928.33
2018-01-05T01:23:11.755Z,928.33
2018-01-05T01:23:24.449Z,928.35
2018-01-05T01:23:37.547Z,928.33
2018-01-05T01:23:50.649Z,928.31
2018-01-05T01:24:03.730Z,928.29
2018-01-05T01:24:16.851Z,928.31
2018-01-05T01:24:29.386Z,928.31
2018-01-05T01:24:42.486Z,928.28
2018-01-05T01:24:55.120Z,928.32
2018-01-05T01:25:07.314Z,928.31
2018-01-05T01:25:20.380Z,928.27
2018-01-05T01:25:32.977Z,928.3
2018-01-05T01:25:46.023Z,928.28
2018-01-05T01:25:59.051Z,928.25
2018-01-05T01:26:11.651Z,928.3
2018-01-05T01:26:24.671Z,928.26
2018-01-05T01:26:36.764Z,928.27
2018-01-05T01:26:49.833Z,928.31
2018-01-05T01:27:02.925Z,928.27
2018-01-05T01:27:15.976Z,928.29
2018-01-05T01:27:29.007Z,928.27
2018-01-05T01:27:42.109Z,928.26
2018-01-05T01:27:55.208Z,928.28
2018-01-05T01:28:08.374Z,928.27
2018-01-05T01:28:21.425Z,928.26
2018-01-05T01:28:33.574Z,928.26
2018-01-05T01:28:46.629Z,928.29
2018-01-05T01:28:59.267Z,928.28
2018-01-05T01:29:11.834Z,928.28
2018-01-05T01:29:24.406Z,928.28
2018-01-05T01:29:36.461Z,928.26
2018-01-05T01:29:49.539Z,928.29
2018-01-05T01:30:02.618Z,928.3
2018-01-05T01:30:15.301Z,928.29
2018-01-05T01:30:27.879Z,928.32
2018-01-05T01:30:41.182Z,928.31
2018-01-05T01:30:54.216Z,928.29
2018-01-05T01:31:06.365Z,928.27
2018-01-05T01:31:19.438Z,928.26
2018-01-05T01:31:32.557Z,928.32
2018-01-05T01:31:45.824Z,928.25
2018-01-05T01:31:58.471Z,928.27
2018-01-05T01:32:11.617Z,928.28
2018-01-05T01:32:24.838Z,928.31
2018-01-05T01:32:37.960Z,928.27
2018-01-05T01:32:51.026Z,928.29
2018-01-05T01:33:04.056Z,928.25
2018-01-05T01:33:17.121Z,928.28
2018-01-05T01:33:30.243Z,928.28
2018-01-05T01:33:43.314Z,928.3
2018-01-05T01:33:55.895Z,928.27
2018-01-05T01:34:09.061Z,928.28
2018-01-05T01:34:22.125Z,928.24
2018-01-05T01:34:35.041Z,928.25
2018-01-05T01:34:48.147Z,928.23
2018-01-05T01:35:01.253Z,928.24
2018-01-05T01:35:14.416Z,928.23
2018-01-05T01:35:27.703Z,928.23
2018-01-05T01:35:41.078Z,928.23
2018-01-05T01:35:54.213Z,928.25
2018-01-05T01:36:07.377Z,928.26
2018-01-05T01:36:20.682Z,928.2
2018-01-05T01:36:33.408Z,928.2
2018-01-05T01:36:45.648Z,928.2
2018-01-05T01:36:58.390Z,928.21
2018-01-05T01:37:11.061Z,928.17
2018-01-05T01:37:24.155Z,928.22
2018-01-05T01:37:36.815Z,928.21
2018-01-05T01:37:49.936Z,928.2
2018-01-05T01:38:03.128Z,928.23
2018-01-05T01:38:16.006Z,928.19
2018-01-05T01:38:29.275Z,928.18
2018-01-05T01:38:42.699Z,928.24
2018-01-05T01:38:54.976Z,928.19
2018-01-05T01:39:07.132Z,928.2
2018-01-05T01:39:20.190Z,928.17
2018-01-05T01:39:33.344Z,928.18
2018-01-05T01:39:47.164Z,928.17
2018-01-05T01:39:59.743Z,928.19
2018-01-05T01:40:13.033Z,928.19
2018-01-05T01:40:26.528Z,928.16
2018-01-05T01:40:39.750Z,928.16
2018-01-05T01:40:52.355Z,928.19
2018-01-05T01:41:05.517Z,928.18
2018-01-05T01:41:18.132Z,928.17
2018-01-05T01:41:30.720Z,928.18
2018-01-05T01:41:43.850Z,928.17
2018-01-05T01:41:56.490Z,928.2
2018-01-05T01:42:09.149Z,928.18
2018-01-05T01:42:22.252Z,928.2
2018-01-05T01:42:34.824Z,928.21
2018-01-05T01:42:47.890Z,928.18
2018-01-05T01:43:00.983Z,928.2
2018-01-05T01:43:13.103Z,928.2
2018-01-05T01:43:26.211Z,928.2
2018-01-05T01:43:38.831Z,928.19
2018-01-05T01:43:51.926Z,928.17
2018-01-05T01:44:05.038Z,928.19
2018-01-05T01:44:18.300Z,928.18
2018-01-05T01:44:31.031Z,928.2
2018-01-05T01:44:44.149Z,928.19
2018-01-05T01:44:57.216Z,928.17
2018-01-05T01:45:09.860Z,928.2
2018-01-05T01:45:22.499Z,928.18
2018-01-05T01:45:35.119Z,928.19
2018-01-05T01:45:48.200Z,928.18
2018-01-05T01:46:00.768Z,928.19
2018-01-05T01:46:13.921Z,928.2
2018-01-05T01:46:26.507Z,928.17
2018-01-05T01:46:39.552Z,928.18
2018-01-05T01:46:52.618Z,928.18
2018-01-05T01:47:04.766Z,928.15
2018-01-05T01:47:17.849Z,928.17
2018-01-05T01:47:30.927Z,928.21
2018-01-05T01:47:44.025Z,928.2
2018-01-05T01:47:57.088Z,928.19
2018-01-05T01:48:09.725Z,928.18
2018-01-05T01:48:22.788Z,928.16
2018-01-05T01:48:35.904Z,928.16
2018-01-05T01:48:48.857Z,928.19
2018-01-05T01:49:01.440Z,928.19
2018-01-05T01:49:14.463Z,928.18
2018-01-05T01:49:27.511Z,928.14
2018-01-05T01:49:40.100Z,928.12
2018-01-05T01:49:52.750Z,928.13
2018-01-05T01:50:04.878Z,928.14
2018-01-05T01:50:18.061Z,928.14
2018-01-05T01:50:31.157Z,928.15
2018-01-05T01:50:43.822Z,928.15
2018-01-05T01:50:56.921Z,928.16
2018-01-05T01:51:09.569Z,928.15
2018-01-05T01:51:22.748Z,928.11
2018-01-05T01:51:35.840Z,928.16
2018-01-05T01:51:48.934Z,928.15
2018-01-05T01:52:01.629Z,928.15
2018-01-05T01:52:14.401Z,928.2
2018-01-05T01:52:27.544Z,928.17
2018-01-05T01:52:40.712Z,928.16
2018-01-05T01:52:53.839Z,928.12
2018-01-05T01:53:06.470Z,928.12
2018-01-05T01:53:19.592Z,928.11
2018-01-05T01:53:32.632Z,928.15
2018-01-05T01:53:45.698Z,928.14
2018-01-05T01:53:58.775Z,928.17
2018-01-05T01:54:10.465Z,928.13
2018-01-05T01:54:23.019Z,928.13
2018-01-05T01:54:35.603Z,928.17
2018-01-05T01:54:49.535Z,928.1
2018-01-05T01:55:02.094Z,928.11
2018-01-05T01:55:14.605Z,928.1
2018-01-05T01:55:27.208Z,928.12
2018-01-05T01:55:39.803Z,928.13
2018-01-05T01:55:52.930Z,928.08
2018-01-05T01:56:04.594Z,928.12
2018-01-05T01:56:17.437Z,928.16
2018-01-05T01:56:30.484Z,928.13
2018-01-05T01:56:43.541Z,928.11
2018-01-05T01:56:56.601Z,928.15
2018-01-05T01:57:09.264Z,928.17
2018-01-05T01:57:22.362Z,928.13
2018-01-05T01:57:35.542Z,928.13
2018-01-05T01:57:48.634Z,928.14
2018-01-05T01:58:01.291Z,928.16
2018-01-05T01:58:14.353Z,928.13
2018-01-05T01:58:27.441Z,928.13
2018-01-05T01:58:40.599Z,928.17
2018-01-05T01:58:53.639Z,928.1
2018-01-05T01:59:05.767Z,928.1
2018-01-05T01:59:18.818Z,928.11
2018-01-05T01:59:30.924Z,928.11
2018-01-05T01:59:43.979Z,928.08
2018-01-05T01:59:57.056Z,928.07
2018-01-05T02:00:10.134Z,928.09
2018-01-05T02:00:22.747Z,928.07
2018-01-05T02:00:35.369Z,928.04
2018-01-05T02:00:48.477Z,928.05
2018-01-05T02:01:01.150Z,928.05
2018-01-05T02:01:13.730Z,928.04
2018-01-05T02:01:26.470Z,928.02
2018-01-05T02:01:39.087Z,928.01
2018-01-05T02:01:52.294Z,928.06
2018-01-05T02:02:05.611Z,928.09
2018-01-05T02:02:18.601Z,928.09
2018-01-05T02:02:31.882Z,928.02
2018-01-05T02:02:44.599Z,928.07
2018-01-05T02:02:57.682Z,927.99
2018-01-05T02:03:10.745Z,928.03
2018-01-05T02:03:23.836Z,928
2018-01-05T02:03:36.986Z,927.99
2018-01-05T02:03:50.066Z,928.02
2018-01-05T02:04:03.186Z,927.98
2018-01-05T02:04:15.758Z,928.01
2018-01-05T02:04:28.880Z,927.97
2018-01-05T02:04:41.918Z,928.09
2018-01-05T02:04:55.431Z,927.97
2018-01-05T02:05:08.480Z,927.98
2018-01-05T02:05:21.543Z,927.96
2018-01-05T02:05:34.174Z,927.97
2018-01-05T02:05:47.246Z,927.99
2018-01-05T02:06:00.315Z,927.96
2018-01-05T02:06:12.913Z,927.99
2018-01-05T02:06:25.928Z,927.96
2018-01-05T02:06:38.492Z,928
2018-01-05T02:06:51.587Z,927.97
2018-01-05T02:07:04.715Z,927.98
2018-01-05T02:07:17.773Z,927.94
2018-01-05T02:07:30.923Z,927.95
2018-01-05T02:07:43.951Z,927.96
2018-01-05T02:07:57.048Z,927.96
2018-01-05T02:08:09.669Z,927.97
2018-01-05T02:08:21.794Z,927.96
2018-01-05T02:08:34.852Z,927.96
2018-01-05T02:08:47.944Z,927.95
2018-01-05T02:09:00.969Z,928
2018-01-05T02:09:13.117Z,927.97
2018-01-05T02:09:25.299Z,927.97
2018-01-05T02:09:38.644Z,927.95
2018-01-05T02:09:52.097Z,927.92
2018-01-05T02:10:05.193Z,927.96
2018-01-05T02:10:18.247Z,927.95
2018-01-05T02:10:30.401Z,927.96
2018-01-05T02:10:43.405Z,927.94
2018-01-05T02:10:56.522Z,927.94
2018-01-05T02:11:09.726Z,927.93
2018-01-05T02:11:22.761Z,927.98
2018-01-05T02:11:35.893Z,927.97
2018-01-05T02:11:48.612Z,927.95
2018-01-05T02:12:01.776Z,927.95
2018-01-05T02:12:14.378Z,927.91
2018-01-05T02:12:27.432Z,927.92
2018-01-05T02:12:39.994Z,927.96
2018-01-05T02:12:53.047Z,927.95
2018-01-05T02:13:06.139Z,927.93
2018-01-05T02:13:19.218Z,927.98
2018-01-05T02:13:31.910Z,927.97
2018-01-05T02:13:45.066Z,927.95
2018-01-05T02:13:58.121Z,927.93
2018-01-05T02:14:11.199Z,927.92
2018-01-05T02:14:23.788Z,927.94
2018-01-05T02:14:36.817Z,927.95
2018-01-05T02:14:49.508Z,927.94
2018-01-05T02:15:02.553Z,927.96
2018-01-05T02:15:15.144Z,927.94
2018-01-05T02:15:27.831Z,928
2018-01-05T02:15:40.825Z,927.98
2018-01-05T02:15:53.011Z,927.95
2018-01-05T02:16:06.147Z,928
2018-01-05T02:16:18.555Z,927.98
2018-01-05T02:16:31.586Z,927.96
2018-01-05T02:16:44.212Z,928.02
2018-01-05T02:16:57.336Z,927.97
2018-01-05T02:17:10.445Z,927.97
2018-01-05T02:17:23.542Z,927.96
2018-01-05T02:17:36.117Z,927.99
2018-01-05T02:17:50.598Z,927.98
2018-01-05T02:18:03.266Z,927.99
2018-01-05T02:18:16.404Z,928
2018-01-05T02:18:28.553Z,927.95
2018-01-05T02:18:41.229Z,927.97
2018-01-05T02:18:54.286Z,928.09
2018-01-05T02:19:07.330Z,928.09
2018-01-05T02:19:19.892Z,928.05
2018-01-05T02:19:32.513Z,928
2018-01-05T02:19:45.593Z,927.95
2018-01-05T02:19:58.658Z,927.97
2018-01-05T02:20:11.256Z,927.98
2018-01-05T02:20:23.882Z,927.97
2018-01-05T02:20:36.911Z,927.99
2018-01-05T02:20:50.041Z,927.96
2018-01-05T02:21:02.623Z,927.94
2018-01-05T02:21:15.764Z,927.96
2018-01-05T02:21:28.823Z,927.99
2018-01-05T02:21:41.922Z,927.98
2018-01-05T02:21:54.123Z,927.95
2018-01-05T02:22:07.183Z,927.99
2018-01-05T02:22:20.222Z,927.97
2018-01-05T02:22:33.352Z,927.91
2018-01-05T02:22:46.429Z,928
2018-01-05T02:22:59.495Z,927.95
2018-01-05T02:23:12.066Z,927.97
2018-01-05T02:23:25.197Z,927.93
2018-01-05T02:23:38.222Z,927.97
2018-01-05T02:23:50.879Z,927.91
2018-01-05T02:24:03.455Z,927.94
2018-01-05T02:24:16.071Z,927.95
2018-01-05T02:24:28.721Z,927.95
2018-01-05T02:24:41.309Z,927.95
2018-01-05T02:24:54.391Z,927.93
2018-01-05T02:25:07.748Z,927.95
2018-01-05T02:25:20.441Z,927.92
2018-01-05T02:25:33.563Z,927.94
2018-01-05T02:25:46.654Z,927.97
2018-01-05T02:25:59.740Z,927.95
2018-01-05T02:26:12.323Z,927.93
2018-01-05T02:26:25.414Z,927.99
2018-01-05T02:26:38.521Z,927.9
2018-01-05T02:26:51.568Z,927.92
2018-01-05T02:27:04.633Z,927.97
2018-01-05T02:27:17.694Z,927.89
2018-01-05T02:27:30.661Z,928
2018-01-05T02:27:43.699Z,927.97
2018-01-05T02:27:56.721Z,927.95
2018-01-05T02:28:09.990Z,927.95
2018-01-05T02:28:22.979Z,927.98
2018-01-05T02:28:35.610Z,927.96
2018-01-05T02:28:48.718Z,927.97
2018-01-05T02:29:01.839Z,927.94
2018-01-05T02:29:14.068Z,927.99
2018-01-05T02:29:27.180Z,928
2018-01-05T02:29:39.292Z,928.02
2018-01-05T02:29:51.844Z,927.95
2018-01-05T02:30:03.995Z,927.95
2018-01-05T02:30:16.406Z,927.94
2018-01-05T02:30:28.992Z,927.97
2018-01-05T02:30:41.617Z,927.96
2018-01-05T02:30:54.715Z,928
2018-01-05T02:31:07.307Z,927.96
2018-01-05T02:31:20.355Z,928
2018-01-05T02:31:33.428Z,927.98
2018-01-05T02:31:46.486Z,927.95
2018-01-05T02:31:59.538Z,927.96
2018-01-05T02:32:11.635Z,927.96
2018-01-05T02:32:24.251Z,927.97
2018-01-05T02:32:37.352Z,927.97
2018-01-05T02:32:49.521Z,927.95
2018-01-05T02:33:02.065Z,927.94
2018-01-05T02:33:15.149Z,927.95
2018-01-05T02:33:27.772Z,928
2018-01-05T02:33:40.796Z,928
2018-01-05T02:33:53.368Z,928.01
2018-01-05T02:34:06.532Z,928
2018-01-05T02:34:19.681Z,927.94
2018-01-05T02:34:32.933Z,927.91
2018-01-05T02:34:45.974Z,927.92
2018-01-05T02:34:59.210Z,927.93
2018-01-05T02:35:12.303Z,927.95
2018-01-05T02:35:25.694Z,927.92
2018-01-05T02:35:38.288Z,927.89
2018-01-05T02:35:51.345Z,927.94
2018-01-05T02:36:03.415Z,927.91
2018-01-05T02:36:15.989Z,927.95
2018-01-05T02:36:29.027Z,927.93
2018-01-05T02:36:42.231Z,927.94
2018-01-05T02:36:55.349Z,927.95
2018-01-05T02:37:08.424Z,927.94
2018-01-05T02:37:21.025Z,927.92
2018-01-05T02:37:34.095Z,927.9
2018-01-05T02:37:48.704Z,927.92
2018-01-05T02:38:01.311Z,927.92
2018-01-05T02:38:14.364Z,927.91
2018-01-05T02:38:27.485Z,927.92
2018-01-05T02:38:40.581Z,927.9
2018-01-05T02:38:53.190Z,927.9
2018-01-05T02:39:06.289Z,927.9
2018-01-05T02:39:19.377Z,927.86
2018-01-05T02:39:32.353Z,927.89
2018-01-05T02:39:45.466Z,927.88
2018-01-05T02:39:59.380Z,927.86
2018-01-05T02:40:11.980Z,927.86
2018-01-05T02:40:24.605Z,927.88
2018-01-05T02:40:37.674Z,927.86
2018-01-05T02:40:50.726Z,927.86
2018-01-05T02:41:03.845Z,927.85
2018-01-05T02:41:16.949Z,927.87
2018-01-05T02:41:30.047Z,927.83